Terminal Aerodrome Forecast
Issued by NWS Jacksonville, FL

Home | Current Version | Previous Version | Text Only | Print | Product List | Glossary On
Versions: 1 2 3 4 5 6 7 8 9 10 11 12 13 14 15
000
FTUS42 KJAX 301934 AAA
TAFGNV
TAF AMD
KGNV 301934Z 3020/3118 28010G16KT P6SM SCT050 SCT090
     FM310300 28005KT P6SM FEW050 BKN250
     FM310700 VRB03KT 4SM BR SCT008
     FM311000 00000KT 2SM BR SCT005
     FM311300 27005KT P6SM FEW010 BKN250=

USA.gov is the U.S. government's official web portal to all federal, state and local government web resources and services.